sensor_id;sensor_type;location;lat;lon;timestamp;temperature;humidity
67870;DHT22;54673;52.262;6.830;2023-09-12T00:01:59;24.10;71.90
67870;DHT22;54673;52.262;6.830;2023-09-12T00:04:24;24.10;71.60
67870;DHT22;54673;52.262;6.830;2023-09-12T00:06:50;24.00;71.80
67870;DHT22;54673;52.262;6.830;2023-09-12T00:09:16;24.00;71.20
67870;DHT22;54673;52.262;6.830;2023-09-12T00:11:42;24.00;71.60
67870;DHT22;54673;52.262;6.830;2023-09-12T00:14:09;24.00;71.70
67870;DHT22;54673;52.262;6.830;2023-09-12T00:16:35;24.00;71.70
67870;DHT22;54673;52.262;6.830;2023-09-12T00:19:00;23.90;72.20
67870;DHT22;54673;52.262;6.830;2023-09-12T00:21:26;23.90;72.00
67870;DHT22;54673;52.262;6.830;2023-09-12T00:23:51;23.80;71.90
67870;DHT22;54673;52.262;6.830;2023-09-12T00:26:17;23.80;72.00
67870;DHT22;54673;52.262;6.830;2023-09-12T00:28:43;23.80;72.20
67870;DHT22;54673;52.262;6.830;2023-09-12T00:31:08;23.80;72.50
67870;DHT22;54673;52.262;6.830;2023-09-12T00:33:34;23.70;73.00
67870;DHT22;54673;52.262;6.830;2023-09-12T00:36:00;23.70;73.20
67870;DHT22;54673;52.262;6.830;2023-09-12T00:38:25;23.60;72.80
67870;DHT22;54673;52.262;6.830;2023-09-12T00:40:51;23.60;72.80
67870;DHT22;54673;52.262;6.830;2023-09-12T00:43:16;23.50;73.20
67870;DHT22;54673;52.262;6.830;2023-09-12T00:45:42;23.50;73.70
67870;DHT22;54673;52.262;6.830;2023-09-12T00:48:08;23.40;73.20
67870;DHT22;54673;52.262;6.830;2023-09-12T00:50:35;23.40;74.20
67870;DHT22;54673;52.262;6.830;2023-09-12T00:53:03;23.50;73.80
67870;DHT22;54673;52.262;6.830;2023-09-12T00:55:31;23.50;73.70
67870;DHT22;54673;52.262;6.830;2023-09-12T00:57:57;23.40;73.60
67870;DHT22;54673;52.262;6.830;2023-09-12T01:00:23;23.40;74.10
67870;DHT22;54673;52.262;6.830;2023-09-12T01:02:49;23.30;73.60
67870;DHT22;54673;52.262;6.830;2023-09-12T01:05:17;23.30;74.80
67870;DHT22;54673;52.262;6.830;2023-09-12T01:07:43;23.20;75.00
67870;DHT22;54673;52.262;6.830;2023-09-12T01:10:09;23.20;74.80
67870;DHT22;54673;52.262;6.830;2023-09-12T01:12:36;23.20;75.30
67870;DHT22;54673;52.262;6.830;2023-09-12T01:15:01;23.20;75.30
67870;DHT22;54673;52.262;6.830;2023-09-12T01:17:31;23.10;75.50
67870;DHT22;54673;52.262;6.830;2023-09-12T01:19:57;23.10;76.50
67870;DHT22;54673;52.262;6.830;2023-09-12T01:22:37;23.40;76.20
67870;DHT22;54673;52.262;6.830;2023-09-12T01:25:42;23.10;75.40
67870;DHT22;54673;52.262;6.830;2023-09-12T01:28:12;23.00;75.50
67870;DHT22;54673;52.262;6.830;2023-09-12T01:30:41;23.00;76.00
67870;DHT22;54673;52.262;6.830;2023-09-12T01:33:07;23.00;76.00
67870;DHT22;54673;52.262;6.830;2023-09-12T01:35:33;23.00;76.10
67870;DHT22;54673;52.262;6.830;2023-09-12T01:37:58;22.90;76.50
67870;DHT22;54673;52.262;6.830;2023-09-12T01:40:50;22.90;76.70
67870;DHT22;54673;52.262;6.830;2023-09-12T01:43:18;22.90;76.70
67870;DHT22;54673;52.262;6.830;2023-09-12T01:45:53;22.90;76.80
67870;DHT22;54673;52.262;6.830;2023-09-12T01:48:25;22.80;77.50
67870;DHT22;54673;52.262;6.830;2023-09-12T01:50:52;22.80;77.60
67870;DHT22;54673;52.262;6.830;2023-09-12T01:53:18;22.70;77.40
67870;DHT22;54673;52.262;6.830;2023-09-12T01:55:45;22.70;77.70
67870;DHT22;54673;52.262;6.830;2023-09-12T01:58:12;22.70;77.80
67870;DHT22;54673;52.262;6.830;2023-09-12T02:00:39;22.70;78.10
67870;DHT22;54673;52.262;6.830;2023-09-12T02:03:05;22.60;78.10
67870;DHT22;54673;52.262;6.830;2023-09-12T02:05:31;22.60;77.90
67870;DHT22;54673;52.262;6.830;2023-09-12T02:07:57;22.60;78.70
67870;DHT22;54673;52.262;6.830;2023-09-12T02:10:25;22.60;78.20
67870;DHT22;54673;52.262;6.830;2023-09-12T02:12:51;22.50;78.60
67870;DHT22;54673;52.262;6.830;2023-09-12T02:15:16;22.50;78.30
67870;DHT22;54673;52.262;6.830;2023-09-12T02:17:42;22.50;78.50
67870;DHT22;54673;52.262;6.830;2023-09-12T02:20:09;22.50;79.00
67870;DHT22;54673;52.262;6.830;2023-09-12T02:22:35;22.40;78.80
67870;DHT22;54673;52.262;6.830;2023-09-12T02:25:01;22.40;79.00
67870;DHT22;54673;52.262;6.830;2023-09-12T02:27:27;22.70;79.30
67870;DHT22;54673;52.262;6.830;2023-09-12T02:29:52;22.40;78.60
67870;DHT22;54673;52.262;6.830;2023-09-12T02:32:18;22.30;79.40
67870;DHT22;54673;52.262;6.830;2023-09-12T02:34:44;22.30;79.50
67870;DHT22;54673;52.262;6.830;2023-09-12T02:37:09;22.30;79.60
67870;DHT22;54673;52.262;6.830;2023-09-12T02:39:35;22.30;79.70
67870;DHT22;54673;52.262;6.830;2023-09-12T02:42:00;22.20;79.60
67870;DHT22;54673;52.262;6.830;2023-09-12T02:44:26;22.20;79.60
67870;DHT22;54673;52.262;6.830;2023-09-12T02:46:51;22.20;79.50
67870;DHT22;54673;52.262;6.830;2023-09-12T02:49:17;22.20;79.60
67870;DHT22;54673;52.262;6.830;2023-09-12T02:51:43;22.10;80.00
67870;DHT22;54673;52.262;6.830;2023-09-12T02:54:08;22.10;79.80
67870;DHT22;54673;52.262;6.830;2023-09-12T02:56:34;22.00;80.20
67870;DHT22;54673;52.262;6.830;2023-09-12T02:58:59;22.00;79.70
67870;DHT22;54673;52.262;6.830;2023-09-12T03:01:25;22.00;80.30
67870;DHT22;54673;52.262;6.830;2023-09-12T03:03:53;22.00;79.80
67870;DHT22;54673;52.262;6.830;2023-09-12T03:06:19;21.90;80.10
67870;DHT22;54673;52.262;6.830;2023-09-12T03:08:45;21.90;80.40
67870;DHT22;54673;52.262;6.830;2023-09-12T03:11:11;21.90;79.90
67870;DHT22;54673;52.262;6.830;2023-09-12T03:13:37;21.90;80.50
67870;DHT22;54673;52.262;6.830;2023-09-12T03:16:03;21.80;80.50
67870;DHT22;54673;52.262;6.830;2023-09-12T03:18:29;21.80;81.10
67870;DHT22;54673;52.262;6.830;2023-09-12T03:20:54;21.80;80.40
67870;DHT22;54673;52.262;6.830;2023-09-12T03:23:20;21.70;81.30
67870;DHT22;54673;52.262;6.830;2023-09-12T03:25:46;21.60;80.20
67870;DHT22;54673;52.262;6.830;2023-09-12T03:28:11;21.70;81.60
67870;DHT22;54673;52.262;6.830;2023-09-12T03:30:38;21.70;81.50
67870;DHT22;54673;52.262;6.830;2023-09-12T03:33:04;21.60;80.80
67870;DHT22;54673;52.262;6.830;2023-09-12T03:35:32;21.60;80.90
67870;DHT22;54673;52.262;6.830;2023-09-12T03:37:58;21.60;81.50
67870;DHT22;54673;52.262;6.830;2023-09-12T03:40:23;21.60;81.20
67870;DHT22;54673;52.262;6.830;2023-09-12T03:42:49;21.50;81.60
67870;DHT22;54673;52.262;6.830;2023-09-12T03:45:15;21.50;81.50
67870;DHT22;54673;52.262;6.830;2023-09-12T03:47:40;21.50;81.60
67870;DHT22;54673;52.262;6.830;2023-09-12T03:50:06;21.50;82.20
67870;DHT22;54673;52.262;6.830;2023-09-12T03:52:32;21.40;81.70
67870;DHT22;54673;52.262;6.830;2023-09-12T03:54:57;21.40;81.90
67870;DHT22;54673;52.262;6.830;2023-09-12T03:57:26;21.40;81.50
67870;DHT22;54673;52.262;6.830;2023-09-12T03:59:51;21.30;81.50
67870;DHT22;54673;52.262;6.830;2023-09-12T04:02:18;21.30;81.90
67870;DHT22;54673;52.262;6.830;2023-09-12T04:04:43;21.30;81.70
67870;DHT22;54673;52.262;6.830;2023-09-12T04:07:09;21.30;81.60
67870;DHT22;54673;52.262;6.830;2023-09-12T04:09:34;21.20;81.90
67870;DHT22;54673;52.262;6.830;2023-09-12T04:12:00;21.20;81.40
67870;DHT22;54673;52.262;6.830;2023-09-12T04:14:26;21.20;81.90
67870;DHT22;54673;52.262;6.830;2023-09-12T04:16:52;21.20;82.50
67870;DHT22;54673;52.262;6.830;2023-09-12T04:19:18;21.20;82.10
67870;DHT22;54673;52.262;6.830;2023-09-12T04:21:43;21.10;82.30
67870;DHT22;54673;52.262;6.830;2023-09-12T04:24:09;21.10;82.10
67870;DHT22;54673;52.262;6.830;2023-09-12T04:26:34;21.10;82.70
67870;DHT22;54673;52.262;6.830;2023-09-12T04:29:00;21.00;82.60
67870;DHT22;54673;52.262;6.830;2023-09-12T04:31:26;21.00;82.60
67870;DHT22;54673;52.262;6.830;2023-09-12T04:33:52;21.00;83.20
67870;DHT22;54673;52.262;6.830;2023-09-12T04:36:18;21.00;82.40
67870;DHT22;54673;52.262;6.830;2023-09-12T04:38:44;20.90;82.80
67870;DHT22;54673;52.262;6.830;2023-09-12T04:41:12;20.90;82.40
67870;DHT22;54673;52.262;6.830;2023-09-12T04:43:40;20.90;82.60
67870;DHT22;54673;52.262;6.830;2023-09-12T04:46:06;20.90;82.70
67870;DHT22;54673;52.262;6.830;2023-09-12T04:48:32;20.80;82.50
67870;DHT22;54673;52.262;6.830;2023-09-12T04:50:57;20.80;82.70
67870;DHT22;54673;52.262;6.830;2023-09-12T04:53:23;20.80;82.20
67870;DHT22;54673;52.262;6.830;2023-09-12T04:55:48;20.80;83.90
67870;DHT22;54673;52.262;6.830;2023-09-12T04:58:14;20.80;83.40
67870;DHT22;54673;52.262;6.830;2023-09-12T05:00:40;20.70;83.80
67870;DHT22;54673;52.262;6.830;2023-09-12T05:03:06;20.70;83.20
67870;DHT22;54673;52.262;6.830;2023-09-12T05:05:34;20.60;82.70
67870;DHT22;54673;52.262;6.830;2023-09-12T05:08:01;20.60;83.40
67870;DHT22;54673;52.262;6.830;2023-09-12T05:10:27;20.60;83.90
67870;DHT22;54673;52.262;6.830;2023-09-12T05:12:53;20.60;82.80
67870;DHT22;54673;52.262;6.830;2023-09-12T05:15:18;20.60;83.30
67870;DHT22;54673;52.262;6.830;2023-09-12T05:17:44;19.90;83.00
67870;DHT22;54673;52.262;6.830;2023-09-12T05:20:10;20.60;83.60
67870;DHT22;54673;52.262;6.830;2023-09-12T05:22:35;20.50;83.60
67870;DHT22;54673;52.262;6.830;2023-09-12T05:25:01;20.50;83.50
67870;DHT22;54673;52.262;6.830;2023-09-12T05:27:26;20.50;83.50
67870;DHT22;54673;52.262;6.830;2023-09-12T05:29:52;20.50;83.80
67870;DHT22;54673;52.262;6.830;2023-09-12T05:32:18;20.50;84.00
67870;DHT22;54673;52.262;6.830;2023-09-12T05:34:43;20.40;84.10
67870;DHT22;54673;52.262;6.830;2023-09-12T05:37:10;20.40;83.90
67870;DHT22;54673;52.262;6.830;2023-09-12T05:39:36;20.40;84.50
67870;DHT22;54673;52.262;6.830;2023-09-12T05:42:02;20.40;84.50
67870;DHT22;54673;52.262;6.830;2023-09-12T05:44:27;20.40;84.40
67870;DHT22;54673;52.262;6.830;2023-09-12T05:46:53;20.40;84.20
67870;DHT22;54673;52.262;6.830;2023-09-12T05:49:19;20.30;84.70
67870;DHT22;54673;52.262;6.830;2023-09-12T05:51:45;20.30;84.70
67870;DHT22;54673;52.262;6.830;2023-09-12T05:54:10;20.40;85.10
67870;DHT22;54673;52.262;6.830;2023-09-12T05:56:39;20.30;85.30
67870;DHT22;54673;52.262;6.830;2023-09-12T05:59:05;20.30;85.30
67870;DHT22;54673;52.262;6.830;2023-09-12T06:01:30;20.30;85.30
67870;DHT22;54673;52.262;6.830;2023-09-12T06:03:56;20.30;85.20
67870;DHT22;54673;52.262;6.830;2023-09-12T06:06:22;20.30;85.70
67870;DHT22;54673;52.262;6.830;2023-09-12T06:08:48;20.70;86.10
67870;DHT22;54673;52.262;6.830;2023-09-12T06:11:13;20.20;85.20
67870;DHT22;54673;52.262;6.830;2023-09-12T06:13:39;20.40;85.70
67870;DHT22;54673;52.262;6.830;2023-09-12T06:16:05;20.40;85.90
67870;DHT22;54673;52.262;6.830;2023-09-12T06:18:31;20.30;85.80
67870;DHT22;54673;52.262;6.830;2023-09-12T06:20:58;20.20;85.90
67870;DHT22;54673;52.262;6.830;2023-09-12T06:23:24;20.20;85.60
67870;DHT22;54673;52.262;6.830;2023-09-12T06:25:50;20.60;86.10
67870;DHT22;54673;52.262;6.830;2023-09-12T06:28:29;20.30;86.10
67870;DHT22;54673;52.262;6.830;2023-09-12T06:30:56;20.20;86.00
67870;DHT22;54673;52.262;6.830;2023-09-12T06:33:23;20.20;86.10
67870;DHT22;54673;52.262;6.830;2023-09-12T06:35:49;20.20;85.80
67870;DHT22;54673;52.262;6.830;2023-09-12T06:38:15;20.30;86.10
67870;DHT22;54673;52.262;6.830;2023-09-12T06:40:42;20.30;86.70
67870;DHT22;54673;52.262;6.830;2023-09-12T06:43:08;20.20;86.20
67870;DHT22;54673;52.262;6.830;2023-09-12T06:45:34;20.10;86.00
67870;DHT22;54673;52.262;6.830;2023-09-12T06:48:02;20.20;86.80
67870;DHT22;54673;52.262;6.830;2023-09-12T06:50:27;20.20;87.00
67870;DHT22;54673;52.262;6.830;2023-09-12T06:52:53;20.20;86.50
67870;DHT22;54673;52.262;6.830;2023-09-12T06:55:18;20.40;86.40
67870;DHT22;54673;52.262;6.830;2023-09-12T06:57:44;20.20;86.50
67870;DHT22;54673;52.262;6.830;2023-09-12T07:00:11;20.40;87.00
67870;DHT22;54673;52.262;6.830;2023-09-12T07:02:37;20.20;87.20
67870;DHT22;54673;52.262;6.830;2023-09-12T07:05:03;20.20;86.40
67870;DHT22;54673;52.262;6.830;2023-09-12T07:07:29;20.20;86.60
67870;DHT22;54673;52.262;6.830;2023-09-12T07:09:55;20.20;86.80
67870;DHT22;54673;52.262;6.830;2023-09-12T07:12:21;20.20;86.50
67870;DHT22;54673;52.262;6.830;2023-09-12T07:14:46;20.20;86.80
67870;DHT22;54673;52.262;6.830;2023-09-12T07:17:12;20.20;86.90
67870;DHT22;54673;52.262;6.830;2023-09-12T07:19:38;20.20;86.60
67870;DHT22;54673;52.262;6.830;2023-09-12T07:22:03;20.30;87.40
67870;DHT22;54673;52.262;6.830;2023-09-12T07:24:29;20.30;86.70
67870;DHT22;54673;52.262;6.830;2023-09-12T07:26:54;20.20;86.80
67870;DHT22;54673;52.262;6.830;2023-09-12T07:29:20;20.20;86.90
67870;DHT22;54673;52.262;6.830;2023-09-12T07:31:46;20.20;87.20
67870;DHT22;54673;52.262;6.830;2023-09-12T07:34:11;20.20;86.30
67870;DHT22;54673;52.262;6.830;2023-09-12T07:36:40;20.20;86.70
67870;DHT22;54673;52.262;6.830;2023-09-12T07:39:05;20.20;86.70
67870;DHT22;54673;52.262;6.830;2023-09-12T07:41:32;20.20;87.00
67870;DHT22;54673;52.262;6.830;2023-09-12T07:43:57;20.20;87.20
67870;DHT22;54673;52.262;6.830;2023-09-12T07:46:23;20.20;86.90
67870;DHT22;54673;52.262;6.830;2023-09-12T07:48:48;20.30;86.60
67870;DHT22;54673;52.262;6.830;2023-09-12T07:51:15;20.40;86.50
67870;DHT22;54673;52.262;6.830;2023-09-12T07:53:42;20.20;86.70
67870;DHT22;54673;52.262;6.830;2023-09-12T07:56:09;20.20;86.70
67870;DHT22;54673;52.262;6.830;2023-09-12T07:58:35;20.20;86.60
67870;DHT22;54673;52.262;6.830;2023-09-12T08:01:08;20.20;87.50
67870;DHT22;54673;52.262;6.830;2023-09-12T08:03:35;20.20;86.60
67870;DHT22;54673;52.262;6.830;2023-09-12T08:06:02;20.30;87.10
67870;DHT22;54673;52.262;6.830;2023-09-12T08:08:29;20.20;86.80
67870;DHT22;54673;52.262;6.830;2023-09-12T08:10:54;20.20;87.10
67870;DHT22;54673;52.262;6.830;2023-09-12T08:13:20;20.60;88.40
67870;DHT22;54673;52.262;6.830;2023-09-12T08:15:45;20.30;87.10
67870;DHT22;54673;52.262;6.830;2023-09-12T08:18:11;20.30;86.90
67870;DHT22;54673;52.262;6.830;2023-09-12T08:20:37;20.30;86.90
67870;DHT22;54673;52.262;6.830;2023-09-12T08:23:03;20.30;88.60
67870;DHT22;54673;52.262;6.830;2023-09-12T08:25:29;20.50;91.20
67870;DHT22;54673;52.262;6.830;2023-09-12T08:27:54;20.30;90.50
67870;DHT22;54673;52.262;6.830;2023-09-12T08:30:20;20.30;91.40
67870;DHT22;54673;52.262;6.830;2023-09-12T08:32:45;20.30;90.80
67870;DHT22;54673;52.262;6.830;2023-09-12T08:35:12;20.30;89.80
67870;DHT22;54673;52.262;6.830;2023-09-12T08:37:39;20.30;91.00
67870;DHT22;54673;52.262;6.830;2023-09-12T08:40:07;20.30;90.60
67870;DHT22;54673;52.262;6.830;2023-09-12T08:42:38;20.30;90.30
67870;DHT22;54673;52.262;6.830;2023-09-12T08:45:13;20.20;89.90
67870;DHT22;54673;52.262;6.830;2023-09-12T08:47:40;20.30;89.50
67870;DHT22;54673;52.262;6.830;2023-09-12T08:50:12;20.60;90.00
67870;DHT22;54673;52.262;6.830;2023-09-12T08:52:41;20.30;89.50
67870;DHT22;54673;52.262;6.830;2023-09-12T08:55:08;20.30;89.80
67870;DHT22;54673;52.262;6.830;2023-09-12T08:57:43;20.30;89.20
67870;DHT22;54673;52.262;6.830;2023-09-12T09:00:10;20.30;88.90
67870;DHT22;54673;52.262;6.830;2023-09-12T09:02:40;20.40;89.20
67870;DHT22;54673;52.262;6.830;2023-09-12T09:05:07;20.30;89.50
67870;DHT22;54673;52.262;6.830;2023-09-12T09:07:39;20.30;89.30
67870;DHT22;54673;52.262;6.830;2023-09-12T09:10:06;20.40;89.20
67870;DHT22;54673;52.262;6.830;2023-09-12T09:12:34;20.40;87.70
67870;DHT22;54673;52.262;6.830;2023-09-12T09:17:53;20.50;88.80
67870;DHT22;54673;52.262;6.830;2023-09-12T09:20:26;20.50;88.60
67870;DHT22;54673;52.262;6.830;2023-09-12T09:23:04;20.60;90.20
67870;DHT22;54673;52.262;6.830;2023-09-12T09:25:36;20.50;88.80
67870;DHT22;54673;52.262;6.830;2023-09-12T09:28:05;20.60;90.10
67870;DHT22;54673;52.262;6.830;2023-09-12T09:30:45;20.60;90.20
67870;DHT22;54673;52.262;6.830;2023-09-12T09:33:12;20.60;89.80
67870;DHT22;54673;52.262;6.830;2023-09-12T09:35:38;20.70;89.90
67870;DHT22;54673;52.262;6.830;2023-09-12T09:38:06;20.70;89.20
67870;DHT22;54673;52.262;6.830;2023-09-12T09:40:33;20.70;88.60
67870;DHT22;54673;52.262;6.830;2023-09-12T09:43:03;20.80;88.20
67870;DHT22;54673;52.262;6.830;2023-09-12T09:45:30;20.80;88.60
67870;DHT22;54673;52.262;6.830;2023-09-12T09:48:05;20.90;88.90
67870;DHT22;54673;52.262;6.830;2023-09-12T09:50:34;20.90;88.70
67870;DHT22;54673;52.262;6.830;2023-09-12T09:53:04;20.90;89.60
67870;DHT22;54673;52.262;6.830;2023-09-12T09:55:34;21.10;90.60
67870;DHT22;54673;52.262;6.830;2023-09-12T09:57:59;21.10;88.50
67870;DHT22;54673;52.262;6.830;2023-09-12T10:00:25;21.20;91.20
67870;DHT22;54673;52.262;6.830;2023-09-12T10:02:53;21.20;89.50
67870;DHT22;54673;52.262;6.830;2023-09-12T10:05:19;21.30;89.20
67870;DHT22;54673;52.262;6.830;2023-09-12T10:07:49;21.40;88.60
67870;DHT22;54673;52.262;6.830;2023-09-12T10:10:18;21.40;89.00
67870;DHT22;54673;52.262;6.830;2023-09-12T10:12:57;21.50;89.40
67870;DHT22;54673;52.262;6.830;2023-09-12T10:15:27;21.60;88.70
67870;DHT22;54673;52.262;6.830;2023-09-12T10:17:59;21.60;88.20
67870;DHT22;54673;52.262;6.830;2023-09-12T10:20:38;21.80;88.90
67870;DHT22;54673;52.262;6.830;2023-09-12T10:23:12;21.80;87.70
67870;DHT22;54673;52.262;6.830;2023-09-12T10:25:40;21.90;88.50
67870;DHT22;54673;52.262;6.830;2023-09-12T10:28:08;22.10;87.20
67870;DHT22;54673;52.262;6.830;2023-09-12T10:30:35;22.20;86.70
67870;DHT22;54673;52.262;6.830;2023-09-12T10:33:05;22.30;86.20
67870;DHT22;54673;52.262;6.830;2023-09-12T10:35:31;22.40;85.50
67870;DHT22;54673;52.262;6.830;2023-09-12T10:38:02;22.60;86.60
67870;DHT22;54673;52.262;6.830;2023-09-12T10:40:31;22.70;84.80
67870;DHT22;54673;52.262;6.830;2023-09-12T10:43:00;22.80;85.50
67870;DHT22;54673;52.262;6.830;2023-09-12T10:45:30;22.90;85.30
67870;DHT22;54673;52.262;6.830;2023-09-12T10:47:56;23.00;84.50
67870;DHT22;54673;52.262;6.830;2023-09-12T10:50:22;23.10;83.10
67870;DHT22;54673;52.262;6.830;2023-09-12T10:52:47;23.10;82.80
67870;DHT22;54673;52.262;6.830;2023-09-12T10:55:17;23.20;83.00
67870;DHT22;54673;52.262;6.830;2023-09-12T10:58:08;23.30;82.90
67870;DHT22;54673;52.262;6.830;2023-09-12T11:00:35;23.50;81.60
67870;DHT22;54673;52.262;6.830;2023-09-12T11:05:54;23.70;80.40
67870;DHT22;54673;52.262;6.830;2023-09-12T11:08:20;23.80;80.40
67870;DHT22;54673;52.262;6.830;2023-09-12T11:11:18;23.80;79.90
67870;DHT22;54673;52.262;6.830;2023-09-12T11:13:45;23.90;79.20
67870;DHT22;54673;52.262;6.830;2023-09-12T11:16:13;24.00;79.10
67870;DHT22;54673;52.262;6.830;2023-09-12T11:19:14;24.10;78.20
67870;DHT22;54673;52.262;6.830;2023-09-12T11:21:43;24.20;76.80
67870;DHT22;54673;52.262;6.830;2023-09-12T11:24:09;24.30;77.20
67870;DHT22;54673;52.262;6.830;2023-09-12T11:26:34;24.30;76.60
67870;DHT22;54673;52.262;6.830;2023-09-12T11:29:20;24.40;77.10
67870;DHT22;54673;52.262;6.830;2023-09-12T11:31:53;24.50;75.90
67870;DHT22;54673;52.262;6.830;2023-09-12T11:34:19;24.60;76.20
67870;DHT22;54673;52.262;6.830;2023-09-12T11:36:46;24.70;75.90
67870;DHT22;54673;52.262;6.830;2023-09-12T11:39:25;24.70;75.40
67870;DHT22;54673;52.262;6.830;2023-09-12T11:41:51;24.80;75.40
67870;DHT22;54673;52.262;6.830;2023-09-12T11:44:19;24.90;74.80
67870;DHT22;54673;52.262;6.830;2023-09-12T11:46:48;25.00;75.00
67870;DHT22;54673;52.262;6.830;2023-09-12T11:49:15;25.10;74.30
67870;DHT22;54673;52.262;6.830;2023-09-12T11:51:54;25.10;74.00
67870;DHT22;54673;52.262;6.830;2023-09-12T11:54:26;25.20;73.80
67870;DHT22;54673;52.262;6.830;2023-09-12T11:56:52;25.20;73.90
67870;DHT22;54673;52.262;6.830;2023-09-12T11:59:26;25.30;73.50
67870;DHT22;54673;52.262;6.830;2023-09-12T12:01:52;25.40;73.30
67870;DHT22;54673;52.262;6.830;2023-09-12T12:04:20;26.00;73.20
67870;DHT22;54673;52.262;6.830;2023-09-12T12:06:47;25.50;72.90
67870;DHT22;54673;52.262;6.830;2023-09-12T12:09:13;25.60;72.60
67870;DHT22;54673;52.262;6.830;2023-09-12T12:11:41;25.60;72.50
67870;DHT22;54673;52.262;6.830;2023-09-12T12:14:16;25.60;72.20
67870;DHT22;54673;52.262;6.830;2023-09-12T12:16:43;25.70;71.90
67870;DHT22;54673;52.262;6.830;2023-09-12T12:19:09;25.80;71.80
67870;DHT22;54673;52.262;6.830;2023-09-12T12:21:37;25.80;71.60
67870;DHT22;54673;52.262;6.830;2023-09-12T12:24:03;25.90;71.70
67870;DHT22;54673;52.262;6.830;2023-09-12T12:26:33;25.90;69.10
67870;DHT22;54673;52.262;6.830;2023-09-12T12:29:00;25.60;68.90
67870;DHT22;54673;52.262;6.830;2023-09-12T12:31:26;25.70;69.60
67870;DHT22;54673;52.262;6.830;2023-09-12T12:33:56;25.90;69.40
67870;DHT22;54673;52.262;6.830;2023-09-12T12:36:22;26.00;69.10
67870;DHT22;54673;52.262;6.830;2023-09-12T12:38:50;26.00;69.00
67870;DHT22;54673;52.262;6.830;2023-09-12T12:41:17;26.10;69.10
67870;DHT22;54673;52.262;6.830;2023-09-12T12:43:52;26.10;68.60
67870;DHT22;54673;52.262;6.830;2023-09-12T12:46:21;26.20;68.60
67870;DHT22;54673;52.262;6.830;2023-09-12T12:48:49;26.20;68.90
67870;DHT22;54673;52.262;6.830;2023-09-12T12:51:20;26.20;68.60
67870;DHT22;54673;52.262;6.830;2023-09-12T12:53:55;26.30;68.80
67870;DHT22;54673;52.262;6.830;2023-09-12T12:56:22;26.40;68.60
67870;DHT22;54673;52.262;6.830;2023-09-12T12:58:50;26.40;68.00
67870;DHT22;54673;52.262;6.830;2023-09-12T13:01:16;26.40;68.20
67870;DHT22;54673;52.262;6.830;2023-09-12T13:03:42;26.40;68.30
67870;DHT22;54673;52.262;6.830;2023-09-12T13:06:08;26.50;68.60
67870;DHT22;54673;52.262;6.830;2023-09-12T13:08:39;26.50;68.40
67870;DHT22;54673;52.262;6.830;2023-09-12T13:11:05;26.50;68.40
67870;DHT22;54673;52.262;6.830;2023-09-12T13:13:31;26.70;68.50
67870;DHT22;54673;52.262;6.830;2023-09-12T13:15:56;26.60;68.20
67870;DHT22;54673;52.262;6.830;2023-09-12T13:18:22;26.60;68.40
67870;DHT22;54673;52.262;6.830;2023-09-12T13:20:48;26.60;68.30
67870;DHT22;54673;52.262;6.830;2023-09-12T13:23:13;26.60;68.50
67870;DHT22;54673;52.262;6.830;2023-09-12T13:25:39;26.60;68.30
67870;DHT22;54673;52.262;6.830;2023-09-12T13:28:05;26.60;68.00
67870;DHT22;54673;52.262;6.830;2023-09-12T13:30:30;26.70;67.80
67870;DHT22;54673;52.262;6.830;2023-09-12T13:32:56;26.70;67.60
67870;DHT22;54673;52.262;6.830;2023-09-12T13:35:21;26.60;68.00
67870;DHT22;54673;52.262;6.830;2023-09-12T13:37:47;26.40;65.00
67870;DHT22;54673;52.262;6.830;2023-09-12T13:40:13;26.40;66.10
67870;DHT22;54673;52.262;6.830;2023-09-12T13:42:47;26.70;66.50
67870;DHT22;54673;52.262;6.830;2023-09-12T13:45:18;25.90;65.70
67870;DHT22;54673;52.262;6.830;2023-09-12T13:47:49;26.70;66.40
67870;DHT22;54673;52.262;6.830;2023-09-12T13:50:20;26.70;66.50
67870;DHT22;54673;52.262;6.830;2023-09-12T13:55:36;26.70;66.80
67870;DHT22;54673;52.262;6.830;2023-09-12T13:58:16;26.80;66.90
67870;DHT22;54673;52.262;6.830;2023-09-12T14:00:44;26.80;66.90
67870;DHT22;54673;52.262;6.830;2023-09-12T14:03:09;26.80;67.20
67870;DHT22;54673;52.262;6.830;2023-09-12T14:05:38;26.80;68.30
67870;DHT22;54673;52.262;6.830;2023-09-12T14:08:03;26.90;66.80
67870;DHT22;54673;52.262;6.830;2023-09-12T14:10:31;26.90;66.40
67870;DHT22;54673;52.262;6.830;2023-09-12T14:12:57;26.90;66.40
67870;DHT22;54673;52.262;6.830;2023-09-12T14:15:23;26.90;66.50
67870;DHT22;54673;52.262;6.830;2023-09-12T14:17:48;27.20;66.40
67870;DHT22;54673;52.262;6.830;2023-09-12T14:20:14;27.00;66.10
67870;DHT22;54673;52.262;6.830;2023-09-12T14:22:43;27.00;65.90
67870;DHT22;54673;52.262;6.830;2023-09-12T14:25:10;27.00;64.90
67870;DHT22;54673;52.262;6.830;2023-09-12T14:27:43;27.00;64.70
67870;DHT22;54673;52.262;6.830;2023-09-12T14:30:14;27.10;64.80
67870;DHT22;54673;52.262;6.830;2023-09-12T14:32:40;27.10;65.10
67870;DHT22;54673;52.262;6.830;2023-09-12T14:35:06;27.10;65.00
67870;DHT22;54673;52.262;6.830;2023-09-12T14:37:40;27.10;65.10
67870;DHT22;54673;52.262;6.830;2023-09-12T14:40:12;27.20;65.30
67870;DHT22;54673;52.262;6.830;2023-09-12T14:42:51;27.10;65.10
67870;DHT22;54673;52.262;6.830;2023-09-12T14:45:28;27.20;64.90
67870;DHT22;54673;52.262;6.830;2023-09-12T14:47:54;27.20;64.80
67870;DHT22;54673;52.262;6.830;2023-09-12T14:50:24;27.20;64.30
67870;DHT22;54673;52.262;6.830;2023-09-12T14:52:59;27.20;64.50
67870;DHT22;54673;52.262;6.830;2023-09-12T14:55:51;26.90;64.60
67870;DHT22;54673;52.262;6.830;2023-09-12T14:58:18;27.20;64.60
67870;DHT22;54673;52.262;6.830;2023-09-12T15:00:43;27.20;65.20
67870;DHT22;54673;52.262;6.830;2023-09-12T15:03:09;27.20;64.70
67870;DHT22;54673;52.262;6.830;2023-09-12T15:05:34;27.20;64.60
67870;DHT22;54673;52.262;6.830;2023-09-12T15:08:00;27.30;65.00
67870;DHT22;54673;52.262;6.830;2023-09-12T15:10:26;27.30;64.90
67870;DHT22;54673;52.262;6.830;2023-09-12T15:12:52;27.30;64.90
67870;DHT22;54673;52.262;6.830;2023-09-12T15:15:19;27.30;65.20
67870;DHT22;54673;52.262;6.830;2023-09-12T15:17:44;27.30;65.00
67870;DHT22;54673;52.262;6.830;2023-09-12T15:20:11;27.50;64.80
67870;DHT22;54673;52.262;6.830;2023-09-12T15:22:36;27.30;64.80
67870;DHT22;54673;52.262;6.830;2023-09-12T15:25:02;27.30;64.90
67870;DHT22;54673;52.262;6.830;2023-09-12T15:27:28;27.30;64.60
67870;DHT22;54673;52.262;6.830;2023-09-12T15:30:00;27.30;64.50
67870;DHT22;54673;52.262;6.830;2023-09-12T15:32:25;27.30;64.60
67870;DHT22;54673;52.262;6.830;2023-09-12T15:34:51;27.30;64.70
67870;DHT22;54673;52.262;6.830;2023-09-12T15:37:17;27.30;64.80
67870;DHT22;54673;52.262;6.830;2023-09-12T15:39:42;27.40;65.00
67870;DHT22;54673;52.262;6.830;2023-09-12T15:42:08;27.30;64.80